Time;durP1;ratioP1;P1;durP2;ratioP2;P2;SDS_P1;SDS_P2;PMS_P1;PMS_P2;Temp;Humidity;BMP_temperature;BMP_pressure;BME280_temperature;BME280_humidity;BME280_pressure;Samples;Min_cycle;Max_cycle;Signal;HPM_P1;HPM_P2
2022/12/03 00:01:53;;;;;;;44.30;19.70;;;0.60;99.90;;;;;;5051449;28;20452;-66
2022/12/03 00:04:21;;;;;;;49.57;19.70;;;0.60;99.90;;;;;;5051259;28;20473;-65
2022/12/03 00:06:48;;;;;;;45.43;20.77;;;0.60;99.90;;;;;;5051465;28;20455;-65
2022/12/03 00:09:14;;;;;;;46.10;20.10;;;0.60;99.90;;;;;;5051141;28;20451;-65
2022/12/03 00:11:41;;;;;;;41.90;16.83;;;0.60;99.90;;;;;;5051451;28;20456;-65
2022/12/03 00:14:08;;;;;;;41.43;18.00;;;0.60;99.90;;;;;;5051169;28;20523;-65
2022/12/03 00:16:34;;;;;;;42.67;18.13;;;0.60;99.90;;;;;;5051072;28;20450;-65
2022/12/03 00:19:01;;;;;;;40.13;16.13;;;0.60;99.90;;;;;;5051366;28;20445;-65
2022/12/03 00:21:29;;;;;;;44.17;18.50;;;0.60;99.90;;;;;;5050929;28;20475;-65
2022/12/03 00:23:56;;;;;;;35.03;15.57;;;0.60;99.90;;;;;;5051222;28;20489;-65
2022/12/03 00:26:22;;;;;;;38.93;15.40;;;0.60;99.90;;;;;;5051371;28;20467;-65
2022/12/03 00:28:49;;;;;;;39.30;17.00;;;0.60;99.90;;;;;;5051309;28;20458;-65
2022/12/03 00:31:16;;;;;;;38.23;16.33;;;0.60;99.90;;;;;;5051081;28;20453;-65
2022/12/03 00:33:42;;;;;;;36.70;15.30;;;0.60;99.90;;;;;;5051049;28;21010;-65
2022/12/03 00:36:09;;;;;;;34.27;14.40;;;0.60;99.90;;;;;;5050816;28;20449;-65
2022/12/03 00:38:37;;;;;;;39.20;15.33;;;0.60;99.90;;;;;;5051306;28;20459;-65
2022/12/03 00:41:04;;;;;;;35.87;15.53;;;0.50;99.90;;;;;;5051053;28;20454;-65
2022/12/03 00:43:31;;;;;;;37.90;16.13;;;0.50;99.90;;;;;;5050979;28;20559;-65
2022/12/03 00:45:57;;;;;;;29.53;14.47;;;0.50;99.90;;;;;;5050901;28;20475;-65
2022/12/03 00:48:24;;;;;;;33.13;13.70;;;0.60;99.90;;;;;;5050870;28;20544;-65
2022/12/03 00:50:51;;;;;;;32.53;14.90;;;0.60;99.90;;;;;;5051052;28;20453;-65
2022/12/03 00:53:17;;;;;;;33.37;15.60;;;0.60;99.90;;;;;;5050915;28;20447;-65
2022/12/03 00:55:45;;;;;;;35.23;15.07;;;0.60;99.90;;;;;;5050652;28;20921;-66
2022/12/03 00:58:12;;;;;;;32.40;14.47;;;0.60;99.90;;;;;;5051007;28;20855;-65
2022/12/03 01:00:39;;;;;;;33.03;13.53;;;0.60;99.90;;;;;;5054249;28;21011;-65
2022/12/03 01:03:06;;;;;;;28.80;13.30;;;0.60;99.90;;;;;;5054323;28;20919;-65
2022/12/03 01:05:32;;;;;;;28.30;12.73;;;0.60;99.90;;;;;;5054510;28;20471;-65
2022/12/03 01:07:59;;;;;;;28.53;13.27;;;0.60;99.90;;;;;;5054723;28;20449;-65
2022/12/03 01:10:25;;;;;;;31.97;14.40;;;0.60;99.90;;;;;;5054456;28;20447;-65
2022/12/03 01:12:53;;;;;;;31.00;13.43;;;0.50;99.90;;;;;;5054555;28;20446;-65
2022/12/03 01:15:20;;;;;;;25.90;12.33;;;0.60;99.90;;;;;;5053579;28;20973;-65
2022/12/03 01:17:47;;;;;;;26.07;13.17;;;0.60;99.90;;;;;;5054779;28;20455;-65
2022/12/03 01:20:14;;;;;;;26.83;12.70;;;0.60;99.90;;;;;;5054302;28;20459;-65
2022/12/03 01:22:40;;;;;;;28.37;12.33;;;0.60;99.90;;;;;;5054300;28;20487;-65
2022/12/03 01:25:07;;;;;;;26.70;12.40;;;0.60;99.90;;;;;;5053989;28;20472;-65
2022/12/03 01:27:34;;;;;;;26.00;11.97;;;0.60;99.90;;;;;;5054060;28;20463;-65
2022/12/03 01:30:02;;;;;;;27.40;12.83;;;0.50;99.90;;;;;;5054181;28;20450;-65
2022/12/03 01:32:28;;;;;;;28.57;12.50;;;0.50;99.90;;;;;;5054222;28;20459;-66
2022/12/03 01:34:55;;;;;;;26.40;11.90;;;0.50;99.90;;;;;;5053948;28;20985;-65
2022/12/03 01:37:24;;;;;;;23.63;11.90;;;0.50;99.90;;;;;;5054001;28;20265;-66
2022/12/03 01:39:51;;;;;;;27.10;11.57;;;0.50;99.90;;;;;;5053843;28;20448;-66
2022/12/03 01:42:19;;;;;;;23.70;11.70;;;0.50;99.90;;;;;;5053485;28;20538;-66
2022/12/03 01:44:47;;;;;;;28.60;12.33;;;0.60;99.90;;;;;;5053789;28;20474;-66
2022/12/03 01:47:17;;;;;;;23.93;12.27;;;0.50;99.90;;;;;;5053844;28;20450;-66
2022/12/03 01:49:46;;;;;;;21.20;10.77;;;0.60;99.90;;;;;;5054095;28;20462;-66
2022/12/03 01:52:15;;;;;;;27.23;12.50;;;0.50;99.90;;;;;;5053709;28;20455;-66
2022/12/03 01:54:46;;;;;;;24.50;11.53;;;0.50;99.90;;;;;;5053638;28;20980;-66
2022/12/03 01:57:20;;;;;;;24.57;11.33;;;0.50;99.90;;;;;;5053918;28;20469;-66
2022/12/03 01:59:48;;;;;;;23.43;11.47;;;0.50;99.90;;;;;;5053729;28;20456;-66
2022/12/03 02:02:21;;;;;;;21.93;10.23;;;0.50;99.90;;;;;;5053281;28;20810;-66
2022/12/03 02:04:48;;;;;;;23.50;12.00;;;0.50;99.90;;;;;;5053359;28;20823;-66
2022/12/03 02:07:24;;;;;;;18.60;10.43;;;0.50;99.90;;;;;;5053156;28;20447;-66
2022/12/03 02:09:52;;;;;;;24.03;11.43;;;0.50;99.90;;;;;;5053195;28;20457;-66
2022/12/03 02:12:22;;;;;;;25.30;10.50;;;0.50;99.90;;;;;;5053441;28;20460;-66
2022/12/03 02:14:49;;;;;;;21.90;11.30;;;0.50;99.90;;;;;;5053254;28;20475;-66
2022/12/03 02:17:17;;;;;;;21.87;10.93;;;0.50;99.90;;;;;;5053142;28;20448;-66
2022/12/03 02:19:44;;;;;;;19.73;10.27;;;0.50;99.90;;;;;;5053337;28;20459;-66
2022/12/03 02:22:20;;;;;;;23.17;10.50;;;0.50;99.90;;;;;;5053100;28;20450;-66
2022/12/03 02:24:54;;;;;;;22.33;11.43;;;0.50;99.90;;;;;;5053041;28;20473;-66
2022/12/03 02:27:23;;;;;;;22.57;11.47;;;0.50;99.90;;;;;;5053024;28;20813;-66
2022/12/03 02:29:50;;;;;;;23.30;11.77;;;0.50;99.90;;;;;;5052776;28;20879;-66
2022/12/03 02:32:17;;;;;;;21.50;10.10;;;0.50;99.90;;;;;;5052960;28;20462;-66
2022/12/03 02:34:45;;;;;;;21.40;11.00;;;0.40;99.90;;;;;;5052849;28;20490;-66
2022/12/03 02:37:15;;;;;;;20.50;10.73;;;0.40;99.90;;;;;;5052776;28;20451;-66
2022/12/03 02:39:46;;;;;;;23.07;10.40;;;0.40;99.90;;;;;;5052680;28;20445;-66
2022/12/03 02:45:01;;;;;;;22.80;10.83;;;0.50;99.90;;;;;;5052577;28;20965;-65
2022/12/03 02:47:29;;;;;;;22.57;10.57;;;0.40;99.90;;;;;;5052786;28;20982;-65
2022/12/03 02:49:57;;;;;;;25.37;11.30;;;0.40;99.90;;;;;;5052587;28;20451;-66
2022/12/03 02:52:24;;;;;;;22.40;11.00;;;0.50;99.90;;;;;;5052463;28;20447;-65
2022/12/03 02:54:51;;;;;;;19.87;10.33;;;0.50;99.90;;;;;;5052022;28;20873;-65
2022/12/03 02:57:17;;;;;;;22.83;10.57;;;0.50;99.90;;;;;;5052583;28;20459;-65
2022/12/03 02:59:45;;;;;;;23.03;11.67;;;0.50;99.90;;;;;;5052542;28;20451;-65
2022/12/03 03:02:14;;;;;;;19.90;10.40;;;0.50;99.90;;;;;;5052332;28;20443;-65
2022/12/03 03:04:41;;;;;;;22.10;11.40;;;0.50;99.90;;;;;;5052093;28;20487;-65
2022/12/03 03:07:09;;;;;;;27.40;13.27;;;0.40;99.90;;;;;;5052082;28;20454;-65
2022/12/03 03:09:36;;;;;;;29.53;12.80;;;0.40;99.90;;;;;;5052104;28;20968;-65
2022/12/03 03:12:02;;;;;;;23.03;11.57;;;0.40;99.90;;;;;;5052170;28;20466;-65
2022/12/03 03:14:29;;;;;;;27.50;12.70;;;0.40;99.90;;;;;;5052073;28;20473;-65
2022/12/03 03:16:56;;;;;;;22.30;12.30;;;0.40;99.90;;;;;;5051598;28;21000;-65
2022/12/03 03:19:25;;;;;;;23.20;11.73;;;0.40;99.90;;;;;;5051899;28;20547;-65
2022/12/03 03:21:53;;;;;;;24.40;11.60;;;0.40;99.90;;;;;;5051241;28;20448;-65
2022/12/03 03:24:20;;;;;;;26.10;11.80;;;0.40;99.90;;;;;;5051840;28;20491;-65
2022/12/03 03:26:48;;;;;;;25.13;11.83;;;0.40;99.90;;;;;;5051905;28;20452;-65
2022/12/03 03:29:15;;;;;;;31.13;13.93;;;0.40;99.90;;;;;;5051893;28;20451;-65
2022/12/03 03:31:43;;;;;;;24.97;11.57;;;0.40;99.90;;;;;;5051545;28;20442;-65
2022/12/03 03:34:10;;;;;;;24.30;11.80;;;0.40;99.90;;;;;;5051806;28;20471;-65
2022/12/03 03:36:39;;;;;;;24.10;12.40;;;0.30;99.90;;;;;;5051896;28;20458;-65
2022/12/03 03:39:06;;;;;;;25.23;11.13;;;0.30;99.90;;;;;;5051852;28;20474;-65
2022/12/03 03:41:34;;;;;;;21.40;10.93;;;0.30;99.90;;;;;;5051543;28;20450;-65
2022/12/03 03:44:01;;;;;;;25.13;12.77;;;0.30;99.90;;;;;;5051439;28;20891;-65
2022/12/03 03:46:28;;;;;;;24.40;11.87;;;0.30;99.90;;;;;;5051423;28;20451;-65
2022/12/03 03:48:55;;;;;;;20.97;10.90;;;0.40;99.90;;;;;;5051827;28;20534;-65
2022/12/03 03:51:22;;;;;;;27.60;12.13;;;0.40;99.90;;;;;;5051660;28;20529;-65
2022/12/03 03:53:51;;;;;;;21.70;11.40;;;0.30;99.90;;;;;;5051618;28;20490;-65
2022/12/03 03:56:20;;;;;;;21.90;11.03;;;0.30;99.90;;;;;;5051322;28;20463;-65
2022/12/03 03:58:47;;;;;;;25.43;12.20;;;0.30;99.90;;;;;;5051278;28;20852;-65
2022/12/03 04:01:15;;;;;;;21.80;10.90;;;0.30;99.90;;;;;;5051881;28;20500;-65
2022/12/03 04:03:41;;;;;;;21.93;11.13;;;0.30;99.90;;;;;;5051332;28;20494;-65
2022/12/03 04:06:09;;;;;;;24.90;12.87;;;0.30;99.90;;;;;;5051449;28;20803;-65
2022/12/03 04:08:35;;;;;;;25.17;12.33;;;0.30;99.90;;;;;;5051387;28;20455;-65
2022/12/03 04:13:48;;;;;;;27.63;11.80;;;0.30;99.90;;;;;;5051404;28;20448;-65
2022/12/03 04:16:14;;;;;;;25.20;10.93;;;0.30;99.90;;;;;;5050985;28;20481;-65
2022/12/03 04:18:44;;;;;;;20.30;10.53;;;0.30;99.90;;;;;;5051403;28;20979;-65
2022/12/03 04:23:56;;;;;;;21.50;10.23;;;0.30;99.90;;;;;;5051009;28;20485;-65
2022/12/03 04:29:08;;;;;;;23.13;11.27;;;0.30;99.90;;;;;;5051210;28;20537;-65
2022/12/03 04:37:04;;;;;;;23.30;11.90;;;0.40;99.90;;;;;;5055112;28;20438;-65
2022/12/03 04:39:31;;;;;;;22.17;11.03;;;0.40;99.90;;;;;;5055128;28;20484;-65
2022/12/03 04:41:59;;;;;;;22.60;11.80;;;0.40;99.90;;;;;;5054995;28;20489;-65
2022/12/03 04:44:38;;;;;;;23.40;11.00;;;0.40;99.90;;;;;;5054459;28;20490;-65
2022/12/03 04:47:08;;;;;;;30.27;13.43;;;0.40;99.90;;;;;;5055203;28;20454;-65
2022/12/03 04:49:37;;;;;;;21.23;11.10;;;0.40;99.90;;;;;;5055035;28;20452;-65
2022/12/03 04:52:04;;;;;;;22.13;11.10;;;0.40;99.90;;;;;;5054804;28;20447;-65
2022/12/03 04:54:31;;;;;;;23.40;11.70;;;0.40;99.90;;;;;;5054391;28;20463;-65
2022/12/03 04:56:59;;;;;;;21.23;10.37;;;0.30;99.90;;;;;;5054975;28;20454;-65
2022/12/03 04:59:26;;;;;;;23.57;11.60;;;0.40;99.90;;;;;;5054889;28;20749;-65
2022/12/03 05:01:52;;;;;;;28.17;12.73;;;0.40;99.90;;;;;;5054821;28;20601;-65
2022/12/03 05:04:19;;;;;;;26.10;12.03;;;0.40;99.90;;;;;;5054322;28;20496;-65
2022/12/03 05:06:46;;;;;;;25.37;12.40;;;0.40;99.90;;;;;;5054692;28;20439;-65
2022/12/03 05:09:13;;;;;;;21.67;11.70;;;0.40;99.90;;;;;;5054300;28;20895;-65
2022/12/03 05:11:40;;;;;;;25.73;11.50;;;0.40;99.90;;;;;;5054227;28;20767;-65
2022/12/03 05:14:09;;;;;;;25.60;12.10;;;0.40;99.90;;;;;;5054332;28;20836;-65
2022/12/03 05:16:36;;;;;;;25.33;13.40;;;0.40;99.90;;;;;;5054183;28;20458;-66
2022/12/03 05:19:04;;;;;;;29.30;12.50;;;0.40;99.90;;;;;;5054183;28;20957;-65
2022/12/03 05:21:30;;;;;;;30.93;12.83;;;0.40;99.90;;;;;;5053988;28;20454;-65
2022/12/03 05:23:57;;;;;;;27.00;12.10;;;0.40;99.90;;;;;;5053992;28;20903;-65
2022/12/03 05:26:24;;;;;;;25.53;12.63;;;0.40;99.90;;;;;;5054163;28;20452;-65
2022/12/03 05:28:51;;;;;;;24.37;12.70;;;0.40;99.90;;;;;;5054187;28;20458;-65
2022/12/03 05:31:19;;;;;;;26.00;13.00;;;0.40;99.90;;;;;;5054531;28;20447;-65
2022/12/03 05:33:45;;;;;;;29.83;13.00;;;0.30;99.90;;;;;;5053815;28;20471;-65
2022/12/03 05:36:12;;;;;;;27.77;13.63;;;0.40;99.90;;;;;;5054016;28;20445;-65
2022/12/03 05:38:39;;;;;;;28.77;12.77;;;0.40;99.90;;;;;;5053739;28;20501;-65
2022/12/03 05:42:52;;;;;;;28.40;13.67;;;0.30;99.90;;;;;;5053734;28;20832;-66
2022/12/03 05:43:52;;;;;;;27.03;12.40;;;0.30;99.90;;;;;;5053521;28;20493;-65
2022/12/03 05:46:20;;;;;;;27.40;13.30;;;0.40;99.90;;;;;;5053546;28;20440;-65
2022/12/03 05:48:47;;;;;;;29.13;12.60;;;0.40;99.90;;;;;;5053675;28;20209;-65
2022/12/03 05:51:13;;;;;;;30.93;13.90;;;0.40;99.90;;;;;;5053849;28;20475;-65
2022/12/03 05:53:40;;;;;;;27.03;13.30;;;0.40;99.90;;;;;;5053645;28;20470;-66
2022/12/03 05:56:07;;;;;;;26.43;12.27;;;0.40;99.90;;;;;;5053508;28;20477;-65
2022/12/03 05:58:34;;;;;;;24.83;12.80;;;0.50;99.90;;;;;;5053508;28;20964;-65
2022/12/03 06:01:01;;;;;;;31.03;13.37;;;0.50;99.90;;;;;;5053302;28;20452;-65
2022/12/03 06:03:29;;;;;;;30.23;12.80;;;0.50;99.90;;;;;;5053453;28;20453;-65
2022/12/03 06:05:55;;;;;;;31.83;14.93;;;0.40;99.90;;;;;;5053460;28;20453;-65
2022/12/03 06:08:22;;;;;;;28.40;14.40;;;0.40;99.90;;;;;;5053470;28;20501;-65
2022/12/03 06:10:49;;;;;;;30.20;14.17;;;0.40;99.90;;;;;;5053365;28;20447;-65
2022/12/03 06:13:16;;;;;;;30.03;14.60;;;0.40;99.90;;;;;;5053282;28;20458;-65
2022/12/03 06:15:42;;;;;;;28.00;13.07;;;0.40;99.90;;;;;;5052739;28;20791;-65
2022/12/03 06:18:09;;;;;;;29.57;13.60;;;0.40;99.90;;;;;;5053306;28;20459;-65
2022/12/03 06:20:37;;;;;;;36.30;14.20;;;0.40;99.90;;;;;;5053205;28;20449;-65
2022/12/03 06:23:04;;;;;;;33.73;14.70;;;0.40;99.90;;;;;;5053176;28;20457;-65
2022/12/03 06:25:31;;;;;;;32.50;14.90;;;0.40;99.90;;;;;;5052599;28;20486;-65
2022/12/03 06:27:57;;;;;;;31.47;14.60;;;0.40;99.90;;;;;;5053327;28;20880;-65
2022/12/03 06:30:24;;;;;;;38.50;15.40;;;0.40;99.90;;;;;;5053019;28;20464;-65
2022/12/03 06:32:51;;;;;;;40.60;15.67;;;0.40;99.90;;;;;;5052932;28;20446;-65
2022/12/03 06:35:18;;;;;;;31.40;14.70;;;0.40;99.90;;;;;;5052623;28;20990;-65
2022/12/03 06:37:46;;;;;;;37.27;15.67;;;0.40;99.90;;;;;;5052870;28;20872;-65
2022/12/03 06:40:13;;;;;;;35.20;15.93;;;0.40;99.90;;;;;;5052398;28;20855;-65
2022/12/03 06:42:40;;;;;;;38.00;16.70;;;0.40;99.90;;;;;;5052998;28;20459;-66
2022/12/03 06:45:07;;;;;;;33.50;14.80;;;0.40;99.90;;;;;;5052580;28;20487;-65
2022/12/03 06:47:34;;;;;;;39.13;16.93;;;0.40;99.90;;;;;;5052824;28;20812;-65
2022/12/03 06:50:00;;;;;;;39.90;15.47;;;0.50;99.90;;;;;;5052467;28;20449;-65
2022/12/03 06:52:27;;;;;;;39.73;17.37;;;0.50;99.90;;;;;;5052526;28;20460;-65
2022/12/03 06:54:55;;;;;;;36.93;16.90;;;0.50;99.90;;;;;;5052215;28;20479;-65
2022/12/03 06:57:22;;;;;;;35.23;17.03;;;0.50;99.90;;;;;;5051875;28;20444;-65
2022/12/03 06:59:48;;;;;;;34.40;15.93;;;0.50;99.90;;;;;;5052452;28;20447;-65
2022/12/03 07:02:15;;;;;;;44.50;19.10;;;0.50;99.90;;;;;;5052457;28;20450;-65
2022/12/03 07:04:42;;;;;;;40.10;17.40;;;0.50;99.90;;;;;;5051892;28;20486;-65
2022/12/03 07:07:08;;;;;;;37.77;17.40;;;0.50;99.90;;;;;;5052193;28;20969;-65
2022/12/03 07:09:35;;;;;;;39.00;16.90;;;0.40;99.90;;;;;;5052133;28;20508;-65
2022/12/03 07:12:03;;;;;;;40.63;17.73;;;0.40;99.90;;;;;;5052100;28;20946;-65
2022/12/03 07:14:30;;;;;;;41.67;19.07;;;0.40;99.90;;;;;;5052065;28;20461;-65
2022/12/03 07:16:56;;;;;;;39.97;17.80;;;0.40;99.90;;;;;;5051818;28;20948;-65
2022/12/03 07:19:23;;;;;;;39.90;17.13;;;0.40;99.90;;;;;;5051795;28;20487;-65
2022/12/03 07:21:50;;;;;;;45.70;18.37;;;0.40;99.90;;;;;;5052120;28;20451;-65
2022/12/03 07:24:17;;;;;;;43.43;19.00;;;0.40;99.90;;;;;;5052059;28;20489;-65
2022/12/03 07:26:43;;;;;;;40.40;17.07;;;0.40;99.90;;;;;;5052124;28;20446;-65
2022/12/03 07:29:11;;;;;;;45.83;19.07;;;0.40;99.90;;;;;;5051883;28;20447;-65
2022/12/03 07:31:38;;;;;;;46.40;18.30;;;0.50;99.90;;;;;;5051790;28;20477;-65
2022/12/03 07:34:05;;;;;;;42.07;19.33;;;0.50;99.90;;;;;;5051384;28;20464;-65
2022/12/03 07:36:31;;;;;;;40.53;17.80;;;0.50;99.90;;;;;;5052078;28;20466;-65
2022/12/03 07:38:58;;;;;;;43.33;18.50;;;0.50;99.90;;;;;;5051915;28;20474;-65
2022/12/03 07:41:25;;;;;;;47.90;19.33;;;0.50;99.90;;;;;;5051495;28;20949;-65
2022/12/03 07:43:51;;;;;;;43.80;18.10;;;0.50;99.90;;;;;;5051662;28;20814;-65
2022/12/03 07:46:19;;;;;;;46.30;18.77;;;0.50;99.90;;;;;;5051458;28;20463;-65
2022/12/03 07:48:46;;;;;;;39.50;17.33;;;0.50;99.90;;;;;;5051807;28;20450;-66
2022/12/03 07:51:13;;;;;;;42.17;18.27;;;0.60;99.90;;;;;;5051602;28;20457;-66
2022/12/03 07:53:39;;;;;;;49.27;20.00;;;0.60;99.90;;;;;;5051425;28;20468;-65
2022/12/03 07:56:07;;;;;;;44.90;18.40;;;0.60;99.90;;;;;;5051244;28;20947;-66
2022/12/03 07:58:34;;;;;;;49.50;19.03;;;0.60;99.90;;;;;;5051670;28;20867;-66
2022/12/03 08:01:00;;;;;;;44.07;18.10;;;0.60;99.90;;;;;;5051160;28;20450;-66
2022/12/03 08:03:28;;;;;;;44.40;19.00;;;0.70;99.90;;;;;;5051348;28;20462;-66
2022/12/03 08:05:55;;;;;;;45.20;18.07;;;0.70;99.90;;;;;;5051361;28;20905;-66
2022/12/03 08:08:22;;;;;;;43.67;17.20;;;0.70;99.90;;;;;;5051305;28;20602;-66
2022/12/03 08:10:48;;;;;;;44.07;19.53;;;0.70;99.90;;;;;;5051207;28;20458;-66
2022/12/03 08:13:17;;;;;;;48.70;19.03;;;0.70;99.90;;;;;;5051393;28;20456;-66
2022/12/03 08:15:44;;;;;;;46.53;19.43;;;0.70;99.90;;;;;;5050572;28;20490;-66
2022/12/03 08:18:14;;;;;;;48.30;19.00;;;0.70;99.90;;;;;;5051360;28;20457;-66
2022/12/03 08:20:43;;;;;;;47.40;19.23;;;0.70;99.90;;;;;;5051122;28;20453;-66
2022/12/03 08:23:14;;;;;;;50.93;18.80;;;0.70;99.90;;;;;;5051341;28;20452;-66
2022/12/03 08:25:41;;;;;;;44.63;19.83;;;0.70;99.90;;;;;;5050786;28;20498;-66
2022/12/03 08:28:13;;;;;;;50.70;20.80;;;0.70;99.90;;;;;;5051369;28;20458;-66
2022/12/03 08:30:41;;;;;;;45.57;19.20;;;0.70;99.90;;;;;;5050999;28;20963;-66
2022/12/03 08:33:17;;;;;;;52.57;20.90;;;0.70;99.90;;;;;;5051104;28;20503;-66
2022/12/03 08:35:49;;;;;;;50.90;20.33;;;0.70;99.90;;;;;;5050959;28;20448;-66
2022/12/03 08:38:16;;;;;;;48.77;20.97;;;0.70;99.90;;;;;;5051358;28;20527;-66
2022/12/03 08:40:45;;;;;;;45.47;19.83;;;0.70;99.90;;;;;;5050902;28;20941;-66
2022/12/03 08:43:16;;;;;;;54.07;20.20;;;0.60;99.90;;;;;;5050951;28;20450;-66
2022/12/03 08:45:44;;;;;;;49.67;21.00;;;0.70;99.90;;;;;;5050709;28;20485;-66
2022/12/03 08:48:31;;;;;;;50.00;20.00;;;0.60;99.90;;;;;;5051521;28;20441;-66
2022/12/03 08:51:01;;;;;;;54.47;21.40;;;0.60;99.90;;;;;;5050707;28;20869;-66
2022/12/03 08:53:36;;;;;;;49.87;20.40;;;0.60;99.90;;;;;;5050826;28;20491;-66
2022/12/03 08:56:06;;;;;;;52.73;21.00;;;0.70;99.90;;;;;;5050690;28;20458;-66
2022/12/03 08:58:40;;;;;;;53.77;21.80;;;0.70;99.90;;;;;;5051030;28;20453;-66
2022/12/03 09:01:29;;;;;;;45.70;19.73;;;0.70;99.90;;;;;;5050570;28;20457;-66
2022/12/03 09:03:58;;;;;;;52.00;21.47;;;0.80;99.90;;;;;;5050881;28;20470;-66
2022/12/03 09:06:26;;;;;;;47.27;20.60;;;0.80;99.90;;;;;;5050805;28;20489;-66
2022/12/03 09:08:53;;;;;;;48.07;20.00;;;0.80;99.90;;;;;;5050900;28;20556;-66
2022/12/03 09:11:20;;;;;;;51.27;21.70;;;0.80;99.90;;;;;;5050550;28;20442;-66
2022/12/03 09:13:46;;;;;;;51.37;20.37;;;0.80;99.90;;;;;;5050915;28;20471;-66
2022/12/03 09:16:13;;;;;;;47.50;19.00;;;0.80;99.90;;;;;;5050198;28;20962;-66
2022/12/03 09:18:40;;;;;;;54.00;20.50;;;0.80;99.90;;;;;;5050798;28;20457;-66
2022/12/03 09:21:06;;;;;;;55.97;21.20;;;0.80;99.90;;;;;;5053067;28;20446;-66
2022/12/03 09:23:34;;;;;;;55.00;21.27;;;0.80;99.90;;;;;;5053937;28;20496;-66
2022/12/03 09:26:01;;;;;;;49.73;20.80;;;0.80;99.90;;;;;;5054077;28;20491;-66
2022/12/03 09:28:28;;;;;;;46.63;19.53;;;0.90;99.90;;;;;;5054328;28;20480;-66
2022/12/03 09:30:54;;;;;;;49.13;20.30;;;0.90;99.90;;;;;;5054052;28;20451;-66
2022/12/03 09:33:21;;;;;;;51.43;19.67;;;0.90;99.90;;;;;;5053961;28;20455;-66
2022/12/03 09:35:48;;;;;;;54.70;22.10;;;0.90;99.90;;;;;;5053807;28;20447;-66
2022/12/03 09:38:14;;;;;;;59.20;21.60;;;0.90;99.90;;;;;;5053889;28;20489;-66
2022/12/03 09:40:42;;;;;;;57.90;22.83;;;0.90;99.90;;;;;;5053725;28;20467;-66
2022/12/03 09:43:10;;;;;;;52.20;19.90;;;0.90;99.90;;;;;;5053850;28;20964;-67
2022/12/03 09:45:37;;;;;;;51.23;20.03;;;0.80;99.90;;;;;;5053622;28;20487;-66
2022/12/03 09:48:04;;;;;;;49.80;21.60;;;0.80;99.90;;;;;;5053775;28;20447;-66
2022/12/03 09:50:31;;;;;;;55.30;22.13;;;0.80;99.90;;;;;;5053510;28;20987;-66
2022/12/03 09:53:01;;;;;;;55.53;22.27;;;0.80;99.90;;;;;;5054095;28;20485;-66
2022/12/03 09:55:29;;;;;;;50.30;20.30;;;0.80;99.90;;;;;;5053549;28;20483;-66
2022/12/03 09:57:59;;;;;;;51.73;21.13;;;0.80;99.90;;;;;;5053630;28;20860;-66
2022/12/03 10:00:28;;;;;;;61.97;20.70;;;0.80;99.90;;;;;;5053583;28;20445;-66
2022/12/03 10:02:57;;;;;;;60.70;21.87;;;0.80;99.90;;;;;;5053327;28;20452;-66
2022/12/03 10:05:24;;;;;;;53.17;20.87;;;0.80;99.90;;;;;;5053156;28;20991;-66
2022/12/03 10:07:51;;;;;;;59.30;21.97;;;0.90;99.90;;;;;;5053483;28;20492;-66
2022/12/03 10:10:21;;;;;;;53.37;20.57;;;0.90;99.90;;;;;;5053251;28;20457;-66
2022/12/03 10:12:48;;;;;;;45.67;19.47;;;1.00;99.90;;;;;;5053283;28;20821;-66
2022/12/03 10:15:19;;;;;;;51.13;22.03;;;1.00;99.90;;;;;;5052965;28;21039;-65
2022/12/03 10:17:47;;;;;;;57.60;21.70;;;1.00;99.90;;;;;;5053266;28;20509;-66
2022/12/03 10:20:16;;;;;;;49.83;20.43;;;1.00;99.90;;;;;;5053223;28;20454;-65
2022/12/03 10:22:44;;;;;;;49.60;20.10;;;1.00;99.90;;;;;;5053439;28;20479;-66
2022/12/03 10:25:13;;;;;;;48.57;20.10;;;1.00;99.90;;;;;;5052797;28;20491;-65
2022/12/03 10:27:41;;;;;;;51.30;19.87;;;1.00;99.90;;;;;;5052849;28;20466;-65
2022/12/03 10:30:18;;;;;;;52.00;20.50;;;1.00;99.90;;;;;;5053073;28;20453;-65
2022/12/03 10:32:47;;;;;;;58.27;20.23;;;1.00;99.90;;;;;;5052962;28;20458;-66
2022/12/03 10:35:15;;;;;;;51.17;19.43;;;1.10;99.90;;;;;;5052773;28;20469;-66
2022/12/03 10:38:02;;;;;;;44.30;18.50;;;1.10;99.90;;;;;;5052719;28;20452;-66
2022/12/03 10:40:30;;;;;;;44.67;19.37;;;1.10;99.90;;;;;;5052900;28;20447;-66
2022/12/03 10:43:15;;;;;;;48.73;20.47;;;1.10;99.90;;;;;;5052655;28;20851;-66
2022/12/03 10:45:44;;;;;;;51.07;19.80;;;1.10;99.90;;;;;;5052503;28;20543;-66
2022/12/03 10:48:13;;;;;;;53.67;21.83;;;1.10;99.90;;;;;;5052600;28;20456;-66
2022/12/03 10:50:48;;;;;;;56.73;21.87;;;1.20;99.90;;;;;;5052459;28;20557;-66
2022/12/03 10:53:15;;;;;;;53.83;21.40;;;1.20;99.90;;;;;;5052622;28;20457;-66
2022/12/03 10:55:44;;;;;;;54.80;21.60;;;1.20;99.90;;;;;;5052307;28;20483;-66
2022/12/03 10:58:19;;;;;;;48.53;20.43;;;1.20;99.90;;;;;;5052387;28;20800;-66
2022/12/03 11:00:47;;;;;;;55.90;21.07;;;1.20;99.90;;;;;;5052466;28;20456;-66
2022/12/03 11:03:18;;;;;;;51.20;21.23;;;1.20;99.90;;;;;;5052133;28;20479;-66
2022/12/03 11:05:45;;;;;;;51.37;21.93;;;1.20;99.90;;;;;;5052404;28;20490;-66
2022/12/03 11:08:16;;;;;;;59.50;23.57;;;1.20;99.90;;;;;;5052186;28;20952;-66
2022/12/03 11:10:43;;;;;;;44.97;20.40;;;1.20;99.90;;;;;;5052340;28;20454;-66
2022/12/03 11:13:45;;;;;;;65.63;23.70;;;1.20;99.90;;;;;;5052111;28;20474;-67
2022/12/03 11:16:14;;;;;;;54.87;21.30;;;1.20;99.90;;;;;;5050712;28;20515;-67
2022/12/03 11:19:01;;;;;;;60.03;21.50;;;1.20;99.90;;;;;;5052467;28;21004;-67
2022/12/03 11:21:28;;;;;;;53.30;21.17;;;1.20;99.90;;;;;;5052358;28;20842;-66
2022/12/03 11:24:21;;;;;;;63.80;22.50;;;1.20;99.90;;;;;;5052151;28;20476;-66
2022/12/03 11:27:24;;;;;;;65.57;22.90;;;1.20;99.90;;;;;;5052049;28;20486;-66
2022/12/03 11:29:59;;;;;;;56.93;20.13;;;1.20;99.90;;;;;;5051771;28;20513;-66
2022/12/03 11:33:05;;;;;;;60.30;21.00;;;1.20;99.90;;;;;;5051857;28;20444;-66
2022/12/03 11:36:07;;;;;;;55.67;24.73;;;1.20;99.90;;;;;;5051650;28;20560;-66
2022/12/03 11:38:45;;;;;;;53.63;20.87;;;1.20;99.90;;;;;;5051915;28;20527;-66
2022/12/03 11:41:13;;;;;;;63.83;22.83;;;1.20;99.90;;;;;;5051857;28;20502;-66
2022/12/03 11:44:26;;;;;;;55.50;22.27;;;1.10;99.90;;;;;;5050973;28;21001;-66
2022/12/03 11:46:53;;;;;;;53.57;20.70;;;1.10;99.90;;;;;;5051795;28;20511;-67
2022/12/03 11:49:36;;;;;;;57.87;20.87;;;1.10;99.90;;;;;;5051831;28;20450;-66
2022/12/03 11:52:19;;;;;;;56.53;22.73;;;1.10;99.90;;;;;;5051568;28;20463;-66
2022/12/03 11:54:49;;;;;;;53.90;21.53;;;1.20;99.90;;;;;;5051093;28;21027;-66
2022/12/03 11:57:28;;;;;;;49.63;20.50;;;1.20;99.90;;;;;;5051568;28;21208;-65
2022/12/03 12:00:05;;;;;;;57.83;21.63;;;1.20;99.90;;;;;;5051608;28;20520;-66
2022/12/03 12:02:32;;;;;;;67.23;22.90;;;1.20;99.90;;;;;;5051516;28;20457;-66
2022/12/03 12:05:15;;;;;;;53.07;20.40;;;1.20;99.90;;;;;;5051253;28;20557;-66
2022/12/03 12:07:44;;;;;;;52.37;21.27;;;1.20;99.90;;;;;;5051620;28;20443;-66
2022/12/03 12:10:12;;;;;;;47.80;19.40;;;1.20;99.90;;;;;;5051296;28;20461;-66
2022/12/03 12:12:41;;;;;;;52.10;20.17;;;1.20;99.90;;;;;;5051366;28;20515;-66
2022/12/03 12:15:34;;;;;;;50.97;20.87;;;1.20;99.90;;;;;;5050749;28;20474;-66
2022/12/03 12:18:34;;;;;;;50.10;20.43;;;1.20;99.90;;;;;;5051312;28;20945;-66
2022/12/03 12:21:33;;;;;;;59.50;20.93;;;1.30;99.90;;;;;;5051303;28;20797;-66
2022/12/03 12:24:31;;;;;;;57.40;22.77;;;1.30;99.90;;;;;;5051053;28;20530;-66
2022/12/03 12:27:01;;;;;;;53.03;20.60;;;1.30;99.90;;;;;;5051388;28;20486;-66
2022/12/03 12:29:28;;;;;;;55.37;21.90;;;1.20;99.90;;;;;;5051235;28;20445;-66
2022/12/03 12:31:59;;;;;;;53.07;20.90;;;1.30;99.90;;;;;;5050942;28;20463;-66
2022/12/03 12:34:26;;;;;;;59.73;22.87;;;1.30;99.90;;;;;;5051132;28;20473;-66
2022/12/03 12:36:55;;;;;;;55.83;21.20;;;1.30;99.90;;;;;;5051322;28;20455;-66
2022/12/03 12:39:22;;;;;;;55.73;23.10;;;1.30;99.90;;;;;;5051227;28;20506;-66
2022/12/03 12:41:50;;;;;;;59.13;22.03;;;1.30;99.90;;;;;;5051038;28;20463;-65
2022/12/03 12:44:22;;;;;;;59.93;22.27;;;1.30;99.90;;;;;;5050614;28;21002;-66
2022/12/03 12:46:51;;;;;;;53.43;20.57;;;1.40;99.90;;;;;;5051313;28;20924;-66
2022/12/03 12:49:20;;;;;;;58.13;21.17;;;1.30;99.90;;;;;;5051237;28;20443;-66
2022/12/03 12:51:48;;;;;;;49.33;20.30;;;1.30;99.90;;;;;;5051099;28;20512;-66
2022/12/03 12:54:17;;;;;;;55.80;20.00;;;1.30;99.90;;;;;;5051250;28;20479;-66
2022/12/03 12:56:46;;;;;;;51.00;21.87;;;1.30;99.90;;;;;;5054483;28;20459;-66
2022/12/03 12:59:15;;;;;;;53.30;21.37;;;1.20;99.90;;;;;;5054923;28;20449;-66
2022/12/03 13:01:44;;;;;;;57.83;22.20;;;1.30;99.90;;;;;;5054862;28;20457;-66
2022/12/03 13:04:12;;;;;;;52.80;21.80;;;1.30;99.90;;;;;;5054567;28;20519;-66